createdAt,value
2022-08-26T00:01:33.797Z,9.27
2022-08-26T00:04:01.981Z,10.05
2022-08-26T00:06:29.108Z,9.35
2022-08-26T00:08:55.915Z,9.40
2022-08-26T00:11:26.790Z,9.63
2022-08-26T00:13:55.133Z,9.48
2022-08-26T00:16:23.634Z,9.88
2022-08-26T00:18:50.720Z,10.48
2022-08-26T00:21:17.853Z,9.80
2022-08-26T00:23:45.229Z,10.05
2022-08-26T00:26:13.568Z,10.65
2022-08-26T00:28:41.280Z,10.17
2022-08-26T00:31:11.058Z,9.32
2022-08-26T00:33:39.291Z,9.93
2022-08-26T00:36:07.119Z,9.93
2022-08-26T00:38:35.642Z,10.18
2022-08-26T00:41:05.767Z,10.88
2022-08-26T00:43:47.728Z,10.03
2022-08-26T00:46:19.743Z,10.52
2022-08-26T00:48:49.946Z,10.68
2022-08-26T00:51:29.513Z,10.70
2022-08-26T00:54:06.556Z,10.35
2022-08-26T00:57:00.054Z,10.87
2022-08-26T00:59:32.914Z,10.73
2022-08-26T01:02:01.006Z,10.50
2022-08-26T01:04:33.232Z,11.02
2022-08-26T01:07:00.459Z,11.00
2022-08-26T01:09:28.042Z,10.30
2022-08-26T01:11:57.155Z,10.18
2022-08-26T01:14:26.490Z,10.00
2022-08-26T01:16:53.440Z,11.07
2022-08-26T01:19:44.116Z,10.88
2022-08-26T01:22:48.071Z,11.27
2022-08-26T01:25:21.021Z,11.35
2022-08-26T01:27:49.065Z,11.98
2022-08-26T01:30:17.094Z,10.77
2022-08-26T01:32:44.564Z,10.80
2022-08-26T01:35:11.709Z,11.90
2022-08-26T01:37:40.490Z,11.57
2022-08-26T01:40:13.943Z,12.93
2022-08-26T01:42:42.151Z,13.17
2022-08-26T01:45:14.487Z,12.77
2022-08-26T01:47:43.053Z,12.80
2022-08-26T01:50:15.751Z,11.37
2022-08-26T01:52:54.977Z,12.30
2022-08-26T01:55:32.206Z,11.37
2022-08-26T01:58:05.434Z,11.93
2022-08-26T02:00:34.387Z,12.23
2022-08-26T02:03:17.459Z,12.13
2022-08-26T02:06:05.906Z,12.27
2022-08-26T02:08:45.408Z,12.70
2022-08-26T02:11:13.810Z,11.30
2022-08-26T02:13:46.088Z,12.77
2022-08-26T02:16:15.626Z,12.23
2022-08-26T02:18:44.984Z,11.80
2022-08-26T02:21:13.976Z,11.90
2022-08-26T02:23:41.589Z,12.27
2022-08-26T02:26:18.000Z,12.37
2022-08-26T02:29:02.251Z,12.30
2022-08-26T02:31:29.491Z,11.93
2022-08-26T02:34:06.444Z,12.13
2022-08-26T02:36:33.495Z,11.57
2022-08-26T02:39:01.410Z,12.30
2022-08-26T02:41:28.552Z,12.50
2022-08-26T02:43:56.031Z,14.03
2022-08-26T02:46:27.790Z,12.60
2022-08-26T02:48:57.059Z,13.03
2022-08-26T02:51:25.042Z,12.60
2022-08-26T02:53:51.836Z,11.83
2022-08-26T02:56:18.823Z,12.87
2022-08-26T02:58:46.018Z,13.37
2022-08-26T03:01:24.233Z,12.63
2022-08-26T03:03:51.168Z,12.73
2022-08-26T03:06:18.276Z,12.87
2022-08-26T03:08:45.126Z,14.07
2022-08-26T03:11:12.476Z,14.23
2022-08-26T03:13:40.292Z,14.10
2022-08-26T03:16:07.965Z,13.87
2022-08-26T03:18:35.308Z,14.47
2022-08-26T03:21:10.965Z,13.97
2022-08-26T03:23:39.936Z,13.27
2022-08-26T03:26:07.517Z,14.40
2022-08-26T03:28:58.036Z,13.83
2022-08-26T03:31:25.429Z,13.03
2022-08-26T03:33:53.980Z,11.87
2022-08-26T03:36:23.762Z,14.10
2022-08-26T03:38:51.403Z,15.63
2022-08-26T03:41:18.198Z,16.63
2022-08-26T03:43:47.687Z,16.03
2022-08-26T03:46:14.927Z,16.13
2022-08-26T03:48:41.793Z,14.97
2022-08-26T03:51:15.043Z,15.67
2022-08-26T03:53:46.377Z,14.83
2022-08-26T03:56:13.164Z,14.90
2022-08-26T03:58:42.769Z,14.10
2022-08-26T04:01:10.785Z,15.43
2022-08-26T04:03:56.277Z,15.03
2022-08-26T04:06:31.668Z,15.47
2022-08-26T04:09:01.603Z,16.80
2022-08-26T04:11:32.115Z,17.33
2022-08-26T04:14:03.764Z,17.77
2022-08-26T04:16:31.396Z,17.20
2022-08-26T04:18:58.499Z,17.93
2022-08-26T04:21:26.355Z,17.83
2022-08-26T04:23:54.218Z,17.33
2022-08-26T04:26:22.666Z,16.63
2022-08-26T04:28:52.521Z,17.57
2022-08-26T04:31:19.705Z,17.60
2022-08-26T04:33:49.993Z,17.70
2022-08-26T04:36:20.224Z,19.03
2022-08-26T04:38:47.694Z,19.73
2022-08-26T04:41:14.851Z,19.93
2022-08-26T04:43:43.251Z,19.67
2022-08-26T04:46:13.008Z,21.07
2022-08-26T04:48:41.333Z,21.63
2022-08-26T04:51:09.880Z,20.30
2022-08-26T04:53:37.650Z,20.50
2022-08-26T04:56:05.351Z,23.40
2022-08-26T04:58:32.598Z,24.77
2022-08-26T05:00:59.798Z,26.33
2022-08-26T05:03:30.316Z,27.37
2022-08-26T05:05:58.004Z,27.77
2022-08-26T05:08:25.005Z,28.30
2022-08-26T05:10:57.461Z,30.60
2022-08-26T05:13:27.457Z,33.67
2022-08-26T05:15:54.699Z,33.33
2022-08-26T05:18:29.775Z,34.80
2022-08-26T05:20:57.409Z,37.27
2022-08-26T05:23:25.200Z,38.90
2022-08-26T05:25:58.333Z,38.73
2022-08-26T05:28:26.937Z,39.77
2022-08-26T05:30:55.257Z,41.00
2022-08-26T05:33:22.690Z,40.27
2022-08-26T05:35:49.660Z,46.53
2022-08-26T05:38:21.587Z,46.43
2022-08-26T05:40:52.708Z,49.40
2022-08-26T05:43:20.957Z,49.13
2022-08-26T05:45:50.112Z,49.20
2022-08-26T05:48:22.642Z,54.43
2022-08-26T05:50:52.768Z,52.80
2022-08-26T05:53:21.708Z,54.07
2022-08-26T05:55:51.330Z,52.17
2022-08-26T05:58:20.890Z,53.57
2022-08-26T06:01:07.931Z,52.97
2022-08-26T06:03:39.645Z,54.80
2022-08-26T06:06:10.833Z,56.37
2022-08-26T06:08:37.798Z,56.13
2022-08-26T06:11:07.872Z,56.83
2022-08-26T06:13:45.114Z,54.73
2022-08-26T06:16:14.816Z,56.50
2022-08-26T06:18:45.277Z,54.00
2022-08-26T06:21:17.529Z,55.17
2022-08-26T06:24:04.909Z,54.57
2022-08-26T06:26:32.236Z,54.67
2022-08-26T06:29:00.108Z,54.07
2022-08-26T06:31:29.228Z,52.23
2022-08-26T06:33:56.545Z,52.87
2022-08-26T06:36:26.265Z,51.93
2022-08-26T06:38:55.268Z,50.93
2022-08-26T06:41:23.342Z,48.87
2022-08-26T06:43:50.619Z,49.20
2022-08-26T06:46:20.875Z,48.95
2022-08-26T06:48:49.032Z,48.17
2022-08-26T06:51:23.591Z,44.33
2022-08-26T06:53:53.251Z,46.20
2022-08-26T06:56:23.515Z,45.50
2022-08-26T06:58:51.797Z,45.90
2022-08-26T07:01:22.105Z,43.87
2022-08-26T07:03:54.260Z,45.37
2022-08-26T07:06:25.374Z,43.47
2022-08-26T07:08:53.993Z,43.97
2022-08-26T07:11:21.266Z,40.90
2022-08-26T07:13:50.366Z,41.33
2022-08-26T07:16:19.000Z,40.45
2022-08-26T07:18:46.829Z,42.73
2022-08-26T07:21:16.655Z,41.73
2022-08-26T07:23:45.385Z,40.73
2022-08-26T07:26:18.869Z,39.77
2022-08-26T07:28:48.544Z,39.13
2022-08-26T07:31:17.810Z,41.05
2022-08-26T07:33:45.756Z,39.22
2022-08-26T07:36:14.966Z,40.38
2022-08-26T07:38:42.351Z,38.30
2022-08-26T07:41:11.465Z,40.13
2022-08-26T07:43:38.250Z,38.92
2022-08-26T07:46:06.384Z,39.83
2022-08-26T07:48:33.424Z,38.50
2022-08-26T07:51:01.317Z,38.97
2022-08-26T07:53:28.212Z,38.35
2022-08-26T07:55:55.805Z,35.70
2022-08-26T07:58:22.860Z,39.65
2022-08-26T08:00:49.743Z,37.05
2022-08-26T08:03:16.803Z,39.03
2022-08-26T08:05:43.589Z,37.10
2022-08-26T08:08:26.942Z,38.47
2022-08-26T08:10:55.802Z,39.58
2022-08-26T08:13:23.724Z,39.83
2022-08-26T08:15:50.964Z,38.90
2022-08-26T08:18:20.475Z,37.88
2022-08-26T08:20:59.123Z,38.13
2022-08-26T08:23:32.466Z,37.80
2022-08-26T08:26:08.408Z,37.10
2022-08-26T08:28:36.399Z,35.70
2022-08-26T08:31:03.328Z,38.30
2022-08-26T08:33:30.294Z,38.10
2022-08-26T08:35:58.614Z,38.22
2022-08-26T08:38:25.937Z,36.58
2022-08-26T08:40:53.386Z,36.15
2022-08-26T08:43:47.418Z,35.70
2022-08-26T08:46:19.351Z,37.47
2022-08-26T08:48:51.701Z,37.50
2022-08-26T08:51:45.873Z,34.50
2022-08-26T08:54:13.700Z,35.38
2022-08-26T08:56:46.773Z,35.58
2022-08-26T08:59:31.287Z,36.38
2022-08-26T09:02:12.966Z,36.75
2022-08-26T09:05:07.858Z,35.05
2022-08-26T09:07:39.794Z,36.60
2022-08-26T09:10:19.325Z,35.92
2022-08-26T09:12:47.496Z,36.58
2022-08-26T09:15:37.890Z,36.22
2022-08-26T09:18:11.178Z,37.00
2022-08-26T09:21:06.301Z,35.95
2022-08-26T09:23:36.586Z,35.85
2022-08-26T09:26:40.865Z,37.05
2022-08-26T09:29:18.337Z,37.90
2022-08-26T09:31:45.563Z,34.15
2022-08-26T09:34:21.243Z,36.13
2022-08-26T09:36:54.130Z,37.00
2022-08-26T09:39:23.931Z,37.50
2022-08-26T09:42:11.149Z,34.78
2022-08-26T09:45:00.127Z,34.67
2022-08-26T09:47:31.838Z,34.08
2022-08-26T09:50:29.950Z,34.97
2022-08-26T09:53:12.881Z,31.55
2022-08-26T09:55:43.394Z,33.10
2022-08-26T09:58:17.315Z,34.65
2022-08-26T10:01:01.428Z,33.08
2022-08-26T10:03:32.903Z,32.63
2022-08-26T10:06:17.501Z,31.92
2022-08-26T10:08:48.852Z,32.45
2022-08-26T10:11:23.631Z,32.67
2022-08-26T10:13:59.473Z,30.55
2022-08-26T10:16:55.228Z,31.02
2022-08-26T10:19:29.196Z,31.83
2022-08-26T10:22:50.999Z,29.67
2022-08-26T10:25:24.747Z,31.15
2022-08-26T10:27:59.331Z,31.52
2022-08-26T10:30:40.049Z,30.02
2022-08-26T10:33:12.419Z,28.05
2022-08-26T10:35:52.716Z,30.10
2022-08-26T10:38:44.235Z,28.75
2022-08-26T10:41:16.990Z,28.52
2022-08-26T10:44:00.281Z,27.00
2022-08-26T10:46:40.976Z,27.23
2022-08-26T10:49:17.821Z,26.48
2022-08-26T10:51:58.925Z,28.95
2022-08-26T10:54:52.059Z,27.52
2022-08-26T10:57:40.411Z,27.90
2022-08-26T11:00:32.253Z,26.25
2022-08-26T11:03:21.753Z,25.73
2022-08-26T11:06:18.481Z,26.98
2022-08-26T11:09:01.115Z,24.90
2022-08-26T11:11:39.862Z,26.00
2022-08-26T11:14:08.172Z,25.80
2022-08-26T11:16:43.563Z,24.92
2022-08-26T11:19:58.925Z,22.23
2022-08-26T11:22:34.745Z,23.70
2022-08-26T11:25:07.226Z,21.00
2022-08-26T11:27:36.128Z,23.85
2022-08-26T11:30:18.536Z,22.58
2022-08-26T11:32:56.848Z,22.08
2022-08-26T11:35:24.334Z,23.50
2022-08-26T11:37:56.612Z,21.33
2022-08-26T11:40:38.434Z,23.65
2022-08-26T11:43:20.844Z,22.10
2022-08-26T11:46:01.592Z,20.88
2022-08-26T11:48:33.452Z,21.00
2022-08-26T11:51:00.636Z,20.55
2022-08-26T11:53:28.400Z,19.23
2022-08-26T11:55:59.336Z,19.98
2022-08-26T11:58:27.707Z,18.45
2022-08-26T12:00:57.963Z,18.48
2022-08-26T12:03:35.964Z,18.55
2022-08-26T12:06:03.733Z,19.20
2022-08-26T12:08:34.492Z,17.92
2022-08-26T12:11:09.667Z,16.98
2022-08-26T12:13:39.104Z,17.73
2022-08-26T12:16:06.523Z,17.13
2022-08-26T12:18:37.635Z,17.10
2022-08-26T12:21:19.699Z,16.17
2022-08-26T12:23:48.495Z,18.40
2022-08-26T12:26:32.934Z,18.38
2022-08-26T12:29:10.787Z,15.40
2022-08-26T12:31:50.894Z,15.68
2022-08-26T12:34:18.703Z,13.50
2022-08-26T12:36:46.681Z,15.52
2022-08-26T12:39:24.073Z,15.27
2022-08-26T12:41:56.713Z,13.13
2022-08-26T12:44:53.430Z,14.27
2022-08-26T12:47:30.822Z,13.98
2022-08-26T12:50:32.445Z,12.35
2022-08-26T12:53:10.019Z,14.15
2022-08-26T12:55:53.959Z,13.50
2022-08-26T12:58:39.388Z,13.25
2022-08-26T13:01:09.020Z,12.93
2022-08-26T13:03:38.763Z,11.95
2022-08-26T13:06:15.574Z,12.57
2022-08-26T13:08:56.368Z,11.27
2022-08-26T13:11:33.009Z,12.48
2022-08-26T13:14:07.068Z,11.27
2022-08-26T13:16:35.101Z,13.25
2022-08-26T13:19:06.239Z,12.30
2022-08-26T13:21:50.557Z,10.35
2022-08-26T13:24:22.303Z,9.10
2022-08-26T13:26:50.168Z,9.27
2022-08-26T13:29:17.210Z,9.00
2022-08-26T13:31:44.912Z,7.97
2022-08-26T13:34:15.595Z,7.22
2022-08-26T13:36:44.846Z,8.18
2022-08-26T13:39:12.372Z,8.38
2022-08-26T13:41:39.380Z,6.93
2022-08-26T13:44:06.674Z,6.88
2022-08-26T13:46:33.679Z,7.18
2022-08-26T13:49:00.641Z,7.45
2022-08-26T13:51:28.397Z,6.20
2022-08-26T13:53:55.360Z,5.72
2022-08-26T13:56:22.997Z,5.30
2022-08-26T13:58:50.383Z,6.10
2022-08-26T14:01:17.713Z,5.13
2022-08-26T14:03:44.759Z,5.35
2022-08-26T14:06:12.425Z,6.60
2022-08-26T14:08:40.137Z,6.47
2022-08-26T14:11:07.893Z,5.57
2022-08-26T14:13:34.764Z,6.00
2022-08-26T14:16:04.411Z,5.60
2022-08-26T14:18:37.274Z,5.28
2022-08-26T14:21:12.577Z,5.65
2022-08-26T14:23:40.095Z,5.82
2022-08-26T14:26:08.435Z,5.47
2022-08-26T14:28:35.608Z,6.35
2022-08-26T14:31:03.407Z,5.50
2022-08-26T14:33:33.756Z,5.55
2022-08-26T14:36:19.583Z,6.22
2022-08-26T14:38:47.055Z,6.05
2022-08-26T14:41:19.487Z,5.60
2022-08-26T14:43:50.035Z,7.22
2022-08-26T14:46:18.410Z,6.00
2022-08-26T14:48:45.295Z,6.60
2022-08-26T14:51:12.489Z,7.57
2022-08-26T14:53:57.956Z,7.38
2022-08-26T14:56:24.926Z,6.40
2022-08-26T14:58:51.802Z,6.63
2022-08-26T15:01:18.690Z,6.20
2022-08-26T15:03:45.821Z,6.70
2022-08-26T15:06:15.351Z,6.35
2022-08-26T15:08:42.097Z,6.93
2022-08-26T15:11:08.930Z,6.93
2022-08-26T15:13:35.800Z,5.93
2022-08-26T15:16:02.873Z,5.95
2022-08-26T15:18:29.906Z,6.38
2022-08-26T15:20:56.756Z,5.70
2022-08-26T15:23:23.505Z,5.43
2022-08-26T15:25:50.451Z,5.43
2022-08-26T15:28:17.208Z,6.22
2022-08-26T15:30:44.021Z,6.00
2022-08-26T15:33:15.282Z,5.65
2022-08-26T15:35:42.601Z,5.05
2022-08-26T15:38:10.837Z,7.88
2022-08-26T15:40:37.962Z,5.63
2022-08-26T15:43:18.445Z,6.47
2022-08-26T15:45:52.089Z,5.82
2022-08-26T15:48:19.106Z,5.22
2022-08-26T15:50:57.346Z,5.55
2022-08-26T15:53:24.668Z,5.20
2022-08-26T15:55:54.956Z,5.30
2022-08-26T15:58:24.700Z,5.20
2022-08-26T16:00:57.208Z,4.60
2022-08-26T16:03:24.186Z,5.88
2022-08-26T16:05:51.070Z,5.03
2022-08-26T16:08:18.135Z,4.68
2022-08-26T16:10:50.310Z,4.72
2022-08-26T16:13:19.831Z,5.57
2022-08-26T16:15:48.380Z,5.78
2022-08-26T16:18:15.930Z,4.65
2022-08-26T16:21:12.948Z,4.72
2022-08-26T16:23:45.042Z,4.05
2022-08-26T16:26:18.117Z,5.18
2022-08-26T16:28:44.977Z,4.93
2022-08-26T16:31:12.122Z,4.18
2022-08-26T16:33:39.199Z,4.30
2022-08-26T16:36:07.049Z,4.63
2022-08-26T16:38:34.755Z,4.85
2022-08-26T16:41:01.904Z,4.43
2022-08-26T16:43:29.215Z,4.10
2022-08-26T16:45:56.340Z,4.40
2022-08-26T16:48:23.733Z,3.75
2022-08-26T16:50:51.760Z,4.95
2022-08-26T16:53:19.067Z,4.25
2022-08-26T16:55:48.110Z,4.80
2022-08-26T16:58:15.363Z,3.95
2022-08-26T17:00:42.579Z,4.60
2022-08-26T17:03:10.007Z,4.65
2022-08-26T17:05:36.952Z,4.93
2022-08-26T17:08:04.918Z,3.97
2022-08-26T17:10:32.792Z,3.55
2022-08-26T17:12:59.702Z,3.65
2022-08-26T17:15:27.007Z,4.40
2022-08-26T17:17:54.780Z,4.80
2022-08-26T17:20:22.678Z,4.03
2022-08-26T17:22:51.501Z,3.95
2022-08-26T17:25:26.686Z,4.32
2022-08-26T17:27:54.093Z,6.78
2022-08-26T17:30:22.271Z,5.55
2022-08-26T17:32:49.586Z,4.60
2022-08-26T17:35:17.119Z,5.53
2022-08-26T17:37:44.538Z,4.82
2022-08-26T17:40:15.510Z,6.07
2022-08-26T17:42:42.525Z,9.68
2022-08-26T17:45:10.704Z,4.50
2022-08-26T17:47:38.555Z,7.43
2022-08-26T17:50:07.325Z,6.03
2022-08-26T17:52:34.124Z,6.88
2022-08-26T17:55:00.865Z,9.25
2022-08-26T17:57:27.794Z,8.95
2022-08-26T17:59:56.558Z,10.00
2022-08-26T18:02:24.065Z,10.52
2022-08-26T18:04:50.925Z,6.63
2022-08-26T18:07:18.169Z,3.78
2022-08-26T18:09:45.594Z,4.55
2022-08-26T18:12:12.719Z,3.70
2022-08-26T18:14:39.467Z,26.60
2022-08-26T18:17:06.334Z,8.90
2022-08-26T18:19:33.131Z,6.22
2022-08-26T18:21:59.945Z,4.47
2022-08-26T18:24:30.350Z,4.00
2022-08-26T18:26:57.587Z,3.50
2022-08-26T18:29:25.465Z,3.35
2022-08-26T18:31:52.481Z,3.60
2022-08-26T18:34:19.400Z,3.58
2022-08-26T18:36:46.685Z,3.90
2022-08-26T18:39:14.531Z,3.72
2022-08-26T18:41:48.382Z,3.55
2022-08-26T18:44:17.467Z,3.42
2022-08-26T18:46:45.984Z,4.30
2022-08-26T18:49:14.790Z,5.50
2022-08-26T18:51:42.419Z,3.92
2022-08-26T18:54:10.640Z,3.78
2022-08-26T18:56:39.893Z,3.42
2022-08-26T18:59:08.575Z,5.10
2022-08-26T19:01:37.014Z,3.70
2022-08-26T19:04:05.595Z,3.88
2022-08-26T19:06:35.626Z,4.30
2022-08-26T19:09:07.898Z,3.67
2022-08-26T19:11:37.452Z,3.65
2022-08-26T19:14:13.155Z,4.63
2022-08-26T19:16:42.524Z,3.88
2022-08-26T19:19:10.047Z,4.17
2022-08-26T19:21:37.602Z,5.47
2022-08-26T19:24:09.375Z,4.10
2022-08-26T19:26:39.407Z,3.15
2022-08-26T19:29:06.696Z,4.63
2022-08-26T19:31:33.584Z,5.25
2022-08-26T19:34:00.551Z,4.83
2022-08-26T19:36:28.521Z,5.30
2022-08-26T19:38:56.720Z,5.07
2022-08-26T19:41:34.129Z,5.07
2022-08-26T19:44:10.426Z,4.00
2022-08-26T19:49:05.636Z,4.10
2022-08-26T19:51:34.750Z,5.82
2022-08-26T19:54:02.108Z,7.32
2022-08-26T19:56:29.275Z,8.80
2022-08-26T19:58:56.715Z,5.13
2022-08-26T20:01:23.986Z,5.13
2022-08-26T20:03:50.826Z,4.63
2022-08-26T20:06:18.308Z,4.97
2022-08-26T20:08:45.633Z,4.47
2022-08-26T20:11:15.900Z,5.97
2022-08-26T20:13:43.997Z,5.22
2022-08-26T20:16:12.041Z,5.35
2022-08-26T20:18:59.755Z,6.73
2022-08-26T20:21:27.390Z,6.53
2022-08-26T20:24:09.172Z,11.10
2022-08-26T20:26:37.907Z,6.18
2022-08-26T20:29:05.623Z,7.00
2022-08-26T20:31:33.249Z,6.20
2022-08-26T20:34:00.239Z,5.10
2022-08-26T20:36:28.226Z,4.85
2022-08-26T20:38:55.996Z,4.40
2022-08-26T20:41:25.666Z,6.40
2022-08-26T20:43:56.123Z,6.38
2022-08-26T20:46:25.048Z,4.60
2022-08-26T20:48:53.069Z,4.35
2022-08-26T20:51:21.308Z,4.43
2022-08-26T20:53:48.050Z,6.33
2022-08-26T20:56:16.485Z,5.53
2022-08-26T20:58:43.329Z,5.93
2022-08-26T21:01:18.573Z,7.57
2022-08-26T21:03:46.355Z,5.57
2022-08-26T21:06:13.622Z,4.93
2022-08-26T21:08:43.207Z,6.00
2022-08-26T21:11:10.998Z,6.03
2022-08-26T21:14:01.208Z,7.77
2022-08-26T21:16:25.476Z,6.63
2022-08-26T21:18:52.639Z,6.37
2022-08-26T21:21:19.876Z,6.18
2022-08-26T21:23:51.968Z,6.70
2022-08-26T21:26:18.975Z,6.30
2022-08-26T21:28:46.336Z,6.27
2022-08-26T21:31:19.848Z,6.30
2022-08-26T21:33:46.924Z,5.83
2022-08-26T21:36:15.008Z,14.00
2022-08-26T21:38:42.049Z,7.93
2022-08-26T21:41:19.357Z,7.37
2022-08-26T21:43:47.622Z,5.53
2022-08-26T21:46:17.351Z,7.23
2022-08-26T21:48:50.547Z,6.23
2022-08-26T21:51:20.543Z,6.60
2022-08-26T21:53:47.628Z,6.67
2022-08-26T21:56:16.589Z,6.30
2022-08-26T21:58:43.747Z,7.77
2022-08-26T22:01:12.967Z,7.10
2022-08-26T22:03:47.102Z,8.00
2022-08-26T22:06:16.003Z,7.43
2022-08-26T22:08:42.907Z,6.90
2022-08-26T22:11:10.424Z,6.70
2022-08-26T22:13:39.087Z,20.53
2022-08-26T22:16:06.829Z,19.00
2022-08-26T22:18:34.704Z,7.73
2022-08-26T22:21:08.171Z,7.33
2022-08-26T22:23:36.896Z,7.50
2022-08-26T22:26:04.867Z,8.67
2022-08-26T22:28:31.806Z,8.77
2022-08-26T22:30:58.934Z,6.67
2022-08-26T22:33:26.106Z,7.43
2022-08-26T22:35:54.188Z,8.37
2022-08-26T22:38:23.696Z,7.80
2022-08-26T22:40:56.095Z,7.43
2022-08-26T22:43:24.641Z,7.27
2022-08-26T22:45:53.087Z,8.77
2022-08-26T22:48:24.476Z,9.87
2022-08-26T22:50:55.270Z,9.30
2022-08-26T22:53:25.115Z,9.03
2022-08-26T22:55:51.886Z,8.27
2022-08-26T22:58:19.391Z,9.23
2022-08-26T23:00:47.728Z,8.33
2022-08-26T23:03:16.716Z,8.90
2022-08-26T23:05:44.150Z,8.33
2022-08-26T23:08:11.829Z,7.80
2022-08-26T23:10:41.809Z,8.73
2022-08-26T23:13:08.867Z,7.40
2022-08-26T23:15:35.894Z,7.53
2022-08-26T23:18:03.556Z,8.00
2022-08-26T23:20:31.024Z,6.67
2022-08-26T23:22:58.623Z,6.33
2022-08-26T23:25:25.982Z,5.30
2022-08-26T23:27:53.139Z,5.70
2022-08-26T23:30:23.091Z,5.13
2022-08-26T23:32:50.597Z,5.30
2022-08-26T23:35:21.700Z,5.37
2022-08-26T23:37:52.451Z,4.80
2022-08-26T23:40:26.391Z,4.40
2022-08-26T23:42:55.088Z,5.30
2022-08-26T23:45:22.980Z,3.67
2022-08-26T23:47:52.909Z,4.57
2022-08-26T23:50:22.069Z,4.27
2022-08-26T23:53:08.664Z,4.53
2022-08-26T23:55:39.212Z,4.00
2022-08-26T23:58:06.639Z,4.10
